createdAt,value
2022-12-05T00:01:42.619Z,6.24
2022-12-05T00:04:13.328Z,6.24
2022-12-05T00:06:42.438Z,6.24
2022-12-05T00:09:11.573Z,6.23
2022-12-05T00:11:42.734Z,6.18
2022-12-05T00:14:11.955Z,6.18
2022-12-05T00:16:42.464Z,6.11
2022-12-05T00:19:13.704Z,6.13
2022-12-05T00:21:41.918Z,6.18
2022-12-05T00:24:13.634Z,6.26
2022-12-05T00:26:40.983Z,6.21
2022-12-05T00:29:08.596Z,6.19
2022-12-05T00:31:35.935Z,6.24
2022-12-05T00:34:03.756Z,6.32
2022-12-05T00:36:33.003Z,6.39
2022-12-05T00:39:02.191Z,6.44
2022-12-05T00:41:30.060Z,6.54
2022-12-05T00:44:00.683Z,6.60
2022-12-05T00:46:30.253Z,6.59
2022-12-05T00:48:59.350Z,6.59
2022-12-05T00:51:32.554Z,6.63
2022-12-05T00:54:02.604Z,6.66
2022-12-05T00:56:31.542Z,6.69
2022-12-05T00:59:00.921Z,6.70
2022-12-05T01:01:34.668Z,6.70
2022-12-05T01:04:06.992Z,6.74
2022-12-05T01:06:34.431Z,6.69
2022-12-05T01:09:02.276Z,6.64
2022-12-05T01:11:29.978Z,6.56
2022-12-05T01:13:57.834Z,6.54
2022-12-05T01:16:31.478Z,6.52
2022-12-05T01:19:00.676Z,6.46
2022-12-05T01:21:28.401Z,6.45
2022-12-05T01:23:55.744Z,6.42
2022-12-05T01:26:23.661Z,6.39
2022-12-05T01:28:52.248Z,6.32
2022-12-05T01:31:23.888Z,6.31
2022-12-05T01:33:53.572Z,6.32
2022-12-05T01:36:22.210Z,6.35
2022-12-05T01:38:50.333Z,6.32
2022-12-05T01:41:23.716Z,6.31
2022-12-05T01:43:55.268Z,6.24
2022-12-05T01:46:23.212Z,6.13
2022-12-05T01:48:53.668Z,6.08
2022-12-05T01:51:21.271Z,6.06
2022-12-05T01:53:48.569Z,6.05
2022-12-05T01:56:18.039Z,5.98
2022-12-05T01:58:47.493Z,5.90
2022-12-05T02:01:18.469Z,5.85
2022-12-05T02:03:48.587Z,5.86
2022-12-05T02:06:16.466Z,5.79
2022-12-05T02:08:45.257Z,5.75
2022-12-05T02:11:16.503Z,5.76
2022-12-05T02:14:18.031Z,5.70
2022-12-05T02:16:57.663Z,5.64
2022-12-05T02:19:31.396Z,5.60
2022-12-05T02:22:36.541Z,5.52
2022-12-05T02:25:11.656Z,5.61
2022-12-05T02:28:03.007Z,5.71
2022-12-05T02:30:54.526Z,5.58
2022-12-05T02:33:37.446Z,5.55
2022-12-05T02:36:36.801Z,5.58
2022-12-05T02:39:17.411Z,5.57
2022-12-05T02:42:09.016Z,5.61
2022-12-05T02:44:47.655Z,5.63
2022-12-05T02:47:19.573Z,5.76
2022-12-05T02:49:48.162Z,5.84
2022-12-05T02:52:17.399Z,5.92
2022-12-05T02:54:47.881Z,5.95
2022-12-05T02:57:16.834Z,6.02
2022-12-05T02:59:44.131Z,6.10
2022-12-05T03:02:27.415Z,6.03
2022-12-05T03:05:02.085Z,5.93
2022-12-05T03:07:31.605Z,5.89
2022-12-05T03:10:04.546Z,5.96
2022-12-05T03:12:42.489Z,6.00
2022-12-05T03:15:19.884Z,5.98
2022-12-05T03:17:58.636Z,5.97
2022-12-05T03:20:35.989Z,5.96
2022-12-05T03:23:12.492Z,5.98
2022-12-05T03:26:14.332Z,5.99
2022-12-05T03:28:47.529Z,6.07
2022-12-05T03:31:21.418Z,6.21
2022-12-05T03:33:51.945Z,6.36
2022-12-05T03:36:30.260Z,6.49
2022-12-05T03:39:06.381Z,6.64
2022-12-05T03:41:36.384Z,6.70
2022-12-05T03:44:33.245Z,6.76
2022-12-05T03:47:06.406Z,6.84
2022-12-05T03:50:10.283Z,6.87
2022-12-05T03:53:11.487Z,6.88
2022-12-05T03:55:38.122Z,6.88
2022-12-05T03:58:15.240Z,6.81
2022-12-05T04:00:47.356Z,6.76
2022-12-05T04:03:23.253Z,6.75
2022-12-05T04:05:58.102Z,6.68
2022-12-05T04:08:45.731Z,6.57
2022-12-05T04:11:20.963Z,6.55
2022-12-05T04:14:01.077Z,6.52
2022-12-05T04:17:01.770Z,6.47
2022-12-05T04:20:00.842Z,6.48
2022-12-05T04:22:29.040Z,6.42
2022-12-05T04:25:18.208Z,6.36
2022-12-05T04:28:04.062Z,6.28
2022-12-05T04:30:48.027Z,6.23
2022-12-05T04:33:46.301Z,6.18
2022-12-05T04:36:45.033Z,6.09
2022-12-05T04:39:21.168Z,6.05
2022-12-05T04:42:16.670Z,5.95
2022-12-05T04:44:50.797Z,5.87
2022-12-05T04:47:21.536Z,5.82
2022-12-05T04:49:53.471Z,5.77
2022-12-05T04:52:22.317Z,5.79
2022-12-05T04:55:11.502Z,5.85
2022-12-05T04:57:53.179Z,5.82
2022-12-05T05:00:21.473Z,5.73
2022-12-05T05:03:00.690Z,5.72
2022-12-05T05:05:29.150Z,5.69
2022-12-05T05:07:56.722Z,5.69
2022-12-05T05:10:37.803Z,5.60
2022-12-05T05:13:05.390Z,5.56
2022-12-05T05:15:32.785Z,5.48
2022-12-05T05:18:00.162Z,5.44
2022-12-05T05:20:27.611Z,5.43
2022-12-05T05:22:57.190Z,5.46
2022-12-05T05:25:25.579Z,5.50
2022-12-05T05:27:55.379Z,5.44
2022-12-05T05:30:24.776Z,5.47
2022-12-05T05:32:52.544Z,5.42
2022-12-05T05:35:20.492Z,5.37
2022-12-05T05:37:47.928Z,5.32
2022-12-05T05:40:15.786Z,5.23
2022-12-05T05:42:48.170Z,5.18
2022-12-05T05:45:16.069Z,5.16
2022-12-05T05:47:44.206Z,5.15
2022-12-05T05:50:16.246Z,5.18
2022-12-05T05:52:46.895Z,5.13
2022-12-05T05:55:14.179Z,5.18
2022-12-05T05:57:41.548Z,5.19
2022-12-05T06:00:09.660Z,5.22
2022-12-05T06:02:37.778Z,5.21
2022-12-05T06:05:05.690Z,5.22
2022-12-05T06:07:33.257Z,5.29
2022-12-05T06:10:01.123Z,5.31
2022-12-05T06:12:28.731Z,5.44
2022-12-05T06:14:56.024Z,5.64
2022-12-05T06:17:23.350Z,5.78
2022-12-05T06:19:50.685Z,5.83
2022-12-05T06:22:18.044Z,5.94
2022-12-05T06:24:45.350Z,5.92
2022-12-05T06:27:12.732Z,5.96
2022-12-05T06:29:40.271Z,5.98
2022-12-05T06:32:07.737Z,6.02
2022-12-05T06:34:35.770Z,6.08
2022-12-05T06:37:03.111Z,6.21
2022-12-05T06:39:30.409Z,6.21
2022-12-05T06:41:57.755Z,6.29
2022-12-05T06:44:27.099Z,6.45
2022-12-05T06:46:55.049Z,6.65
2022-12-05T06:49:30.700Z,6.77
2022-12-05T06:52:00.152Z,6.96
2022-12-05T06:54:27.786Z,7.15
2022-12-05T06:56:55.054Z,7.23
2022-12-05T06:59:22.405Z,7.50
2022-12-05T07:01:50.326Z,7.95
2022-12-05T07:04:24.003Z,8.90
2022-12-05T07:06:52.884Z,9.90
2022-12-05T07:09:23.393Z,11.73
2022-12-05T07:11:51.901Z,11.30
2022-12-05T07:14:45.844Z,10.25
2022-12-05T07:17:07.051Z,9.95
2022-12-05T07:19:34.482Z,9.75
2022-12-05T07:22:02.232Z,9.27
2022-12-05T07:24:29.862Z,9.59
2022-12-05T07:26:57.386Z,9.36
2022-12-05T07:29:25.418Z,9.67
2022-12-05T07:31:54.070Z,9.66
2022-12-05T07:34:21.513Z,8.99
2022-12-05T07:36:48.852Z,8.98
2022-12-05T07:39:16.323Z,8.80
2022-12-05T07:41:43.646Z,8.93
2022-12-05T07:44:16.091Z,8.50
2022-12-05T07:46:43.501Z,8.68
2022-12-05T07:49:10.898Z,8.91
2022-12-05T07:51:38.911Z,8.70
2022-12-05T07:54:06.833Z,8.22
2022-12-05T07:56:34.539Z,8.35
2022-12-05T07:59:01.925Z,8.47
2022-12-05T08:01:30.165Z,8.45
2022-12-05T08:03:59.355Z,8.74
2022-12-05T08:06:29.530Z,8.78
2022-12-05T08:08:57.969Z,8.72
2022-12-05T08:11:28.211Z,9.03
2022-12-05T08:13:56.567Z,9.18
2022-12-05T08:16:26.910Z,9.45
2022-12-05T08:18:59.613Z,9.67
2022-12-05T08:21:27.196Z,9.71
2022-12-05T08:23:54.918Z,9.95
2022-12-05T08:26:24.780Z,10.33
2022-12-05T08:28:58.730Z,10.42
2022-12-05T08:31:29.684Z,10.33
2022-12-05T08:33:59.679Z,10.11
2022-12-05T08:36:29.301Z,10.35
2022-12-05T08:39:04.920Z,10.18
2022-12-05T08:41:32.860Z,10.44
2022-12-05T08:44:03.265Z,9.90
2022-12-05T08:46:32.322Z,10.11
2022-12-05T08:48:59.785Z,10.44
2022-12-05T08:51:27.255Z,11.39
2022-12-05T08:53:56.548Z,12.06
2022-12-05T08:56:27.180Z,12.12
2022-12-05T08:59:04.434Z,12.98
2022-12-05T09:01:34.249Z,12.84
2022-12-05T09:04:04.551Z,16.91
2022-12-05T09:06:33.081Z,19.12
2022-12-05T09:09:04.644Z,20.82
2022-12-05T09:11:34.935Z,23.24
2022-12-05T09:14:03.212Z,24.97
2022-12-05T09:16:37.523Z,25.67
2022-12-05T09:19:16.352Z,21.70
2022-12-05T09:21:44.576Z,18.92
2022-12-05T09:24:13.591Z,23.29
2022-12-05T09:26:41.629Z,21.51
2022-12-05T09:29:16.191Z,20.83
2022-12-05T09:31:46.801Z,22.73
2022-12-05T09:34:15.272Z,25.40
2022-12-05T09:36:43.617Z,22.24
2022-12-05T09:39:11.481Z,21.86
2022-12-05T09:42:05.667Z,21.72
2022-12-05T09:44:47.927Z,25.74
2022-12-05T09:47:24.367Z,24.03
2022-12-05T09:49:57.806Z,25.59
2022-12-05T09:52:31.751Z,26.25
2022-12-05T09:55:19.584Z,25.90
2022-12-05T09:57:56.463Z,26.62
2022-12-05T10:00:24.645Z,23.45
2022-12-05T10:03:10.399Z,21.37
2022-12-05T10:05:56.401Z,22.64
2022-12-05T10:08:34.624Z,25.77
2022-12-05T10:11:24.479Z,22.69
2022-12-05T10:14:19.456Z,21.52
2022-12-05T10:17:01.200Z,22.89
2022-12-05T10:19:39.185Z,22.23
2022-12-05T10:22:21.643Z,21.61
2022-12-05T10:24:56.480Z,26.16
2022-12-05T10:27:50.222Z,23.28
2022-12-05T10:30:24.274Z,22.56
2022-12-05T10:32:54.471Z,22.68
2022-12-05T10:35:26.519Z,24.42
2022-12-05T10:38:00.188Z,22.72
2022-12-05T10:40:42.827Z,22.11
2022-12-05T10:43:14.523Z,26.36
2022-12-05T10:45:44.983Z,24.22
2022-12-05T10:48:14.752Z,24.60
2022-12-05T10:50:44.343Z,23.89
2022-12-05T10:53:23.711Z,23.69
2022-12-05T10:56:28.129Z,26.82
2022-12-05T10:58:38.804Z,27.75
2022-12-05T11:01:14.177Z,29.82
2022-12-05T11:03:43.673Z,24.30
2022-12-05T11:06:37.608Z,24.33
2022-12-05T11:09:19.418Z,22.92
2022-12-05T11:12:20.874Z,24.71
2022-12-05T11:15:01.339Z,21.43
2022-12-05T11:17:40.124Z,23.01
2022-12-05T11:20:20.377Z,23.16
2022-12-05T11:22:50.515Z,24.60
2022-12-05T11:25:35.067Z,27.42
2022-12-05T11:28:30.713Z,24.56
2022-12-05T11:31:06.116Z,24.05
2022-12-05T11:33:36.472Z,25.89
2022-12-05T11:36:29.071Z,23.77
2022-12-05T11:38:58.384Z,24.44
2022-12-05T11:41:46.800Z,25.27
2022-12-05T11:44:23.121Z,23.86
2022-12-05T11:47:18.354Z,23.18
2022-12-05T11:50:16.305Z,24.36
2022-12-05T11:53:21.062Z,21.46
2022-12-05T11:56:31.320Z,19.69
2022-12-05T11:59:20.900Z,20.22
2022-12-05T12:02:03.245Z,19.32
2022-12-05T12:04:55.253Z,17.91
2022-12-05T12:07:34.129Z,16.58
2022-12-05T12:10:26.178Z,16.05
2022-12-05T12:13:21.303Z,15.05
2022-12-05T12:15:51.287Z,14.69
2022-12-05T12:19:03.310Z,14.37
2022-12-05T12:21:56.836Z,14.10
2022-12-05T12:24:47.147Z,14.27
2022-12-05T12:28:04.465Z,14.21
2022-12-05T12:30:44.465Z,14.15
2022-12-05T12:33:28.361Z,13.97
2022-12-05T12:36:07.481Z,14.07
2022-12-05T12:38:36.212Z,13.99
2022-12-05T12:41:31.844Z,14.10
2022-12-05T12:44:36.566Z,14.11
2022-12-05T12:47:13.655Z,13.86
2022-12-05T12:50:14.828Z,14.00
2022-12-05T12:52:54.131Z,13.78
2022-12-05T12:55:30.328Z,13.81
2022-12-05T12:58:15.595Z,13.79
2022-12-05T13:01:04.219Z,13.73
2022-12-05T13:03:39.534Z,13.86
2022-12-05T13:06:21.348Z,13.96
2022-12-05T13:09:02.075Z,13.67
2022-12-05T13:11:36.567Z,13.63
2022-12-05T13:14:14.174Z,13.67
2022-12-05T13:16:48.973Z,13.54
2022-12-05T13:19:40.876Z,13.64
2022-12-05T13:22:08.911Z,13.76
2022-12-05T13:24:36.364Z,13.50
2022-12-05T13:27:09.360Z,13.52
2022-12-05T13:30:03.481Z,13.43
2022-12-05T13:32:37.207Z,13.59
2022-12-05T13:35:08.071Z,13.76
2022-12-05T13:37:55.449Z,13.67
2022-12-05T13:40:44.209Z,13.32
2022-12-05T13:43:14.812Z,12.91
2022-12-05T13:45:53.981Z,12.70
2022-12-05T13:48:26.973Z,12.63
2022-12-05T13:50:59.816Z,12.68
2022-12-05T13:53:45.495Z,12.60
2022-12-05T13:56:13.429Z,12.49
2022-12-05T13:58:52.808Z,12.41
2022-12-05T14:01:26.947Z,12.30
2022-12-05T14:04:03.103Z,12.25
2022-12-05T14:06:39.177Z,12.21
2022-12-05T14:09:18.610Z,12.18
2022-12-05T14:12:15.250Z,12.20
2022-12-05T14:14:58.090Z,12.21
2022-12-05T14:17:31.631Z,12.23
2022-12-05T14:20:07.874Z,12.28
2022-12-05T14:22:57.973Z,12.38
2022-12-05T14:25:57.349Z,12.42
2022-12-05T14:28:43.505Z,12.39
2022-12-05T14:31:29.394Z,12.36
2022-12-05T14:34:28.203Z,12.34
2022-12-05T14:37:30.767Z,12.37
2022-12-05T14:40:01.156Z,12.35
2022-12-05T14:42:43.727Z,12.36
2022-12-05T14:45:20.268Z,12.34
2022-12-05T14:47:58.219Z,12.32
2022-12-05T14:50:48.685Z,12.26
2022-12-05T14:53:22.702Z,12.23
2022-12-05T14:55:55.875Z,12.16
2022-12-05T14:58:58.265Z,12.13
2022-12-05T15:01:33.145Z,12.06
2022-12-05T15:04:03.348Z,11.97
2022-12-05T15:06:34.867Z,11.93
2022-12-05T15:09:35.634Z,11.86
2022-12-05T15:11:55.456Z,11.83
2022-12-05T15:14:31.299Z,11.83
2022-12-05T15:17:01.854Z,11.83
2022-12-05T15:19:57.281Z,11.74
2022-12-05T15:22:28.248Z,11.72
2022-12-05T15:24:55.617Z,11.64
2022-12-05T15:27:23.424Z,11.67
2022-12-05T15:29:54.745Z,11.66
2022-12-05T15:32:27.127Z,11.68
2022-12-05T15:35:06.369Z,11.58
2022-12-05T15:37:56.223Z,11.52
2022-12-05T15:40:26.230Z,11.44
2022-12-05T15:42:57.651Z,11.39
2022-12-05T15:45:27.101Z,11.36
2022-12-05T15:48:12.406Z,11.31
2022-12-05T15:50:50.398Z,11.22
2022-12-05T15:53:25.435Z,11.18
2022-12-05T15:56:20.308Z,11.13
2022-12-05T15:58:54.400Z,11.10
2022-12-05T16:01:24.590Z,11.03
2022-12-05T16:03:55.778Z,11.01
2022-12-05T16:06:30.242Z,10.97
2022-12-05T16:08:59.542Z,10.94
2022-12-05T16:11:27.718Z,10.89
2022-12-05T16:13:58.265Z,10.78
2022-12-05T16:16:36.414Z,10.65
2022-12-05T16:19:18.338Z,10.53
2022-12-05T16:21:58.932Z,10.39
2022-12-05T16:24:31.622Z,10.26
2022-12-05T16:27:21.188Z,10.19
2022-12-05T16:29:48.481Z,10.18
2022-12-05T16:32:24.116Z,10.18
2022-12-05T16:34:51.745Z,10.20
2022-12-05T16:37:24.734Z,10.23
2022-12-05T16:39:52.642Z,10.22
2022-12-05T16:42:30.754Z,10.22
2022-12-05T16:45:04.681Z,10.23
2022-12-05T16:47:41.207Z,10.29
2022-12-05T16:50:37.943Z,10.30
2022-12-05T16:53:09.059Z,10.26
2022-12-05T16:55:41.202Z,10.25
2022-12-05T16:58:12.296Z,10.23
2022-12-05T17:00:39.644Z,10.19
2022-12-05T17:03:33.599Z,10.19
2022-12-05T17:06:01.383Z,10.18
2022-12-05T17:08:28.833Z,10.16
2022-12-05T17:10:56.364Z,10.17
2022-12-05T17:13:24.052Z,10.18
2022-12-05T17:15:51.451Z,10.20
2022-12-05T17:18:25.296Z,10.18
2022-12-05T17:20:57.518Z,10.16
2022-12-05T17:23:25.255Z,10.15
2022-12-05T17:25:58.131Z,10.10
2022-12-05T17:28:26.100Z,10.01
2022-12-05T17:30:53.477Z,9.90
2022-12-05T17:33:20.808Z,9.83
2022-12-05T17:35:48.152Z,9.76
2022-12-05T17:38:15.609Z,9.68
2022-12-05T17:40:43.452Z,9.59
2022-12-05T17:43:19.888Z,9.53
2022-12-05T17:45:50.624Z,9.42
2022-12-05T17:48:18.197Z,9.34
2022-12-05T17:50:48.149Z,9.29
2022-12-05T17:53:17.405Z,9.15
2022-12-05T17:55:47.704Z,9.06
2022-12-05T17:58:15.913Z,9.01
2022-12-05T18:00:44.635Z,9.00
2022-12-05T18:03:14.406Z,9.00
2022-12-05T18:05:41.858Z,9.00
2022-12-05T18:08:10.019Z,8.93
2022-12-05T18:10:42.787Z,8.95
2022-12-05T18:13:11.149Z,8.93
2022-12-05T18:15:42.988Z,8.95
2022-12-05T18:18:15.083Z,8.92
2022-12-05T18:20:44.278Z,8.87
2022-12-05T18:23:15.214Z,8.86
2022-12-05T18:25:43.015Z,8.80
2022-12-05T18:28:13.932Z,8.74
2022-12-05T18:30:43.934Z,8.70
2022-12-05T18:33:14.605Z,8.76
2022-12-05T18:35:42.568Z,8.84
2022-12-05T18:38:11.366Z,8.89
2022-12-05T18:40:38.957Z,8.88
2022-12-05T18:43:06.693Z,8.87
2022-12-05T18:45:34.145Z,8.83
2022-12-05T18:48:23.273Z,8.73
2022-12-05T18:50:50.335Z,8.73
2022-12-05T18:53:17.684Z,8.66
2022-12-05T18:56:05.225Z,8.60
2022-12-05T18:58:32.830Z,8.55
2022-12-05T19:01:11.840Z,8.51
2022-12-05T19:03:40.067Z,8.58
2022-12-05T19:06:18.883Z,8.54
2022-12-05T19:08:46.728Z,8.51
2022-12-05T19:11:16.547Z,8.45
2022-12-05T19:13:44.036Z,8.38
2022-12-05T19:16:19.403Z,8.39
2022-12-05T19:18:47.340Z,8.34
2022-12-05T19:21:14.796Z,8.34
2022-12-05T19:23:42.218Z,8.24
2022-12-05T19:26:09.853Z,8.11
2022-12-05T19:28:38.200Z,8.07
2022-12-05T19:31:08.219Z,7.95
2022-12-05T19:33:45.520Z,7.85
2022-12-05T19:36:15.859Z,7.74
2022-12-05T19:38:45.541Z,7.67
2022-12-05T19:41:16.135Z,7.66
2022-12-05T19:43:46.044Z,7.59
2022-12-05T19:46:21.465Z,7.57
2022-12-05T19:48:53.140Z,7.55
2022-12-05T19:51:20.920Z,7.70
2022-12-05T19:53:50.637Z,7.66
2022-12-05T19:56:21.052Z,7.69
2022-12-05T19:58:50.941Z,7.49
2022-12-05T20:01:24.268Z,7.26
2022-12-05T20:04:12.470Z,7.10
2022-12-05T20:06:46.045Z,6.99
2022-12-05T20:09:14.972Z,6.96
2022-12-05T20:11:47.101Z,7.07
2022-12-05T20:14:19.314Z,6.96
2022-12-05T20:16:47.161Z,6.97
2022-12-05T20:19:14.717Z,6.95
2022-12-05T20:21:42.052Z,7.05
2022-12-05T20:24:10.875Z,7.06
2022-12-05T20:26:41.270Z,7.07
2022-12-05T20:29:08.785Z,7.00
2022-12-05T20:31:41.301Z,6.80
2022-12-05T20:34:14.833Z,6.68
2022-12-05T20:36:42.620Z,6.54
2022-12-05T20:39:16.290Z,6.52
2022-12-05T20:41:44.835Z,6.50
2022-12-05T20:44:15.391Z,6.49
2022-12-05T20:46:42.959Z,6.73
2022-12-05T20:49:12.715Z,6.86
2022-12-05T20:51:42.258Z,6.88
2022-12-05T20:54:09.676Z,7.12
2022-12-05T20:56:37.058Z,7.14
2022-12-05T20:59:06.037Z,7.09
2022-12-05T21:01:35.912Z,6.98
2022-12-05T21:04:05.881Z,7.05
2022-12-05T21:06:36.500Z,7.13
2022-12-05T21:09:06.235Z,7.16
2022-12-05T21:11:33.671Z,7.19
2022-12-05T21:14:05.182Z,7.24
2022-12-05T21:16:32.587Z,7.35
2022-12-05T21:19:00.341Z,7.45
2022-12-05T21:21:29.416Z,7.46
2022-12-05T21:23:59.632Z,7.46
2022-12-05T21:26:29.963Z,7.45
2022-12-05T21:28:58.843Z,7.49
2022-12-05T21:31:32.631Z,7.48
2022-12-05T21:34:03.261Z,7.40
2022-12-05T21:36:33.453Z,7.44
2022-12-05T21:39:01.029Z,7.44
2022-12-05T21:41:28.587Z,7.41
2022-12-05T21:43:56.608Z,7.38
2022-12-05T21:46:25.318Z,7.36
2022-12-05T21:48:53.272Z,7.31
2022-12-05T21:51:21.508Z,7.28
2022-12-05T21:53:48.792Z,7.23
2022-12-05T21:56:18.371Z,7.16
2022-12-05T21:58:47.327Z,7.06
2022-12-05T22:01:27.731Z,6.94
2022-12-05T22:03:59.295Z,6.83
2022-12-05T22:06:27.612Z,6.69
2022-12-05T22:08:55.623Z,6.61
2022-12-05T22:11:24.215Z,6.55
2022-12-05T22:13:53.127Z,6.48
2022-12-05T22:16:21.139Z,6.44
2022-12-05T22:18:48.805Z,6.39
2022-12-05T22:21:22.177Z,6.36
2022-12-05T22:23:50.118Z,6.29
2022-12-05T22:26:26.006Z,6.26
2022-12-05T22:28:55.586Z,6.25
2022-12-05T22:31:24.210Z,6.25
2022-12-05T22:33:51.695Z,6.13
2022-12-05T22:36:20.131Z,5.99
2022-12-05T22:38:48.394Z,5.84
2022-12-05T22:41:21.712Z,5.80
2022-12-05T22:43:53.154Z,5.73
2022-12-05T22:46:21.064Z,5.55
2022-12-05T22:48:49.964Z,5.59
2022-12-05T22:51:21.676Z,5.52
2022-12-05T22:53:51.346Z,5.47
2022-12-05T22:56:20.205Z,5.44
2022-12-05T22:58:47.945Z,5.39
2022-12-05T23:01:16.632Z,5.34
2022-12-05T23:03:49.552Z,5.25
2022-12-05T23:06:18.126Z,5.37
2022-12-05T23:08:50.469Z,5.38
2022-12-05T23:11:25.985Z,5.56
2022-12-05T23:14:01.429Z,5.57
2022-12-05T23:16:32.073Z,5.67
2022-12-05T23:19:02.481Z,5.58
2022-12-05T23:21:33.164Z,5.72
2022-12-05T23:24:03.569Z,5.78
2022-12-05T23:26:34.069Z,5.87
2022-12-05T23:29:01.358Z,5.84
2022-12-05T23:31:29.003Z,5.74
2022-12-05T23:34:02.631Z,5.58
2022-12-05T23:36:32.532Z,5.47
2022-12-05T23:39:00.535Z,5.56
2022-12-05T23:41:28.042Z,5.56
2022-12-05T23:43:55.497Z,5.42
2022-12-05T23:46:25.135Z,5.43
2022-12-05T23:48:52.891Z,5.40
2022-12-05T23:51:22.712Z,5.34
2022-12-05T23:53:56.076Z,5.31
2022-12-05T23:56:28.864Z,5.37
2022-12-05T23:58:56.736Z,5.33
